createdAt,value
2023-04-13T00:04:23.267Z,99.84
2023-04-13T00:09:31.461Z,99.88
2023-04-13T00:14:39.404Z,99.48
2023-04-13T00:19:43.540Z,99.24
2023-04-13T00:24:46.065Z,99.60
2023-04-13T00:29:49.570Z,99.76
2023-04-13T00:34:52.306Z,100.00
2023-04-13T00:39:54.270Z,100.00
2023-04-13T00:44:56.951Z,100.00
2023-04-13T00:50:06.825Z,100.00
2023-04-13T00:55:15.121Z,100.00
2023-04-13T01:00:22.548Z,100.00
2023-04-13T01:05:27.130Z,100.00
2023-04-13T01:10:50.779Z,100.00
2023-04-13T01:16:20.881Z,100.00
2023-04-13T01:21:28.844Z,100.00
2023-04-13T01:26:47.861Z,100.00
2023-04-13T01:31:55.049Z,100.00
2023-04-13T01:36:58.264Z,100.00
2023-04-13T01:42:01.565Z,100.00
2023-04-13T01:47:16.653Z,99.81
2023-04-13T01:52:41.648Z,99.44
2023-04-13T01:57:49.051Z,97.43
2023-04-13T02:02:57.229Z,96.68
2023-04-13T02:08:01.911Z,96.12
2023-04-13T02:13:10.181Z,95.70
2023-04-13T02:18:18.896Z,95.02
2023-04-13T02:23:21.707Z,95.52
2023-04-13T02:28:24.237Z,96.55
2023-04-13T02:33:38.582Z,96.99
2023-04-13T02:38:40.968Z,97.27
2023-04-13T02:43:53.073Z,97.31
2023-04-13T02:48:58.651Z,98.09
2023-04-13T02:54:09.877Z,97.97
2023-04-13T02:59:15.650Z,97.87
2023-04-13T03:04:18.392Z,96.69
2023-04-13T03:09:23.146Z,95.32
2023-04-13T03:14:30.390Z,95.55
2023-04-13T03:19:41.998Z,95.01
2023-04-13T03:24:45.486Z,95.15
2023-04-13T03:29:58.923Z,95.68
2023-04-13T03:41:14.541Z,93.68
2023-04-13T03:46:23.373Z,94.91
2023-04-13T03:51:28.265Z,93.49
2023-04-13T03:56:32.305Z,91.57
2023-04-13T04:01:39.835Z,90.60
2023-04-13T04:06:47.624Z,89.97
2023-04-13T04:11:57.047Z,88.62
2023-04-13T04:17:15.182Z,87.80
2023-04-13T04:22:24.742Z,88.91
2023-04-13T04:27:28.190Z,87.88
2023-04-13T04:32:37.543Z,87.72
2023-04-13T04:37:49.841Z,87.45
2023-04-13T04:42:54.894Z,86.16
2023-04-13T04:48:06.196Z,85.43
2023-04-13T04:53:10.021Z,85.85
2023-04-13T04:58:12.619Z,87.13
2023-04-13T05:03:23.394Z,87.57
2023-04-13T05:08:36.931Z,88.70
2023-04-13T05:13:41.340Z,90.10
2023-04-13T05:18:59.717Z,89.79
2023-04-13T05:24:22.875Z,89.74
2023-04-13T05:29:26.729Z,91.41
2023-04-13T05:34:29.421Z,93.25
2023-04-13T05:39:42.268Z,94.79
2023-04-13T05:44:46.006Z,93.90
2023-04-13T05:49:52.551Z,93.92
2023-04-13T05:54:58.075Z,94.41
2023-04-13T06:00:00.091Z,96.31
2023-04-13T06:05:15.948Z,98.32
2023-04-13T06:10:19.601Z,96.84
2023-04-13T06:15:21.699Z,95.32
2023-04-13T06:20:23.636Z,95.48
2023-04-13T06:25:25.558Z,96.04
2023-04-13T06:30:27.324Z,96.91
2023-04-13T06:35:33.234Z,96.38
2023-04-13T06:40:35.433Z,97.51
2023-04-13T06:45:40.593Z,97.30
2023-04-13T06:50:46.761Z,95.32
2023-04-13T06:55:48.553Z,94.27
2023-04-13T07:00:51.012Z,94.09
2023-04-13T07:05:52.813Z,93.66
2023-04-13T07:10:55.288Z,93.03
2023-04-13T07:16:05.448Z,95.54
2023-04-13T07:21:10.355Z,97.47
2023-04-13T07:26:27.559Z,96.24
2023-04-13T07:31:30.769Z,95.17
2023-04-13T07:36:32.780Z,95.27
2023-04-13T07:41:40.798Z,97.57
2023-04-13T07:46:47.904Z,97.16
2023-04-13T07:51:53.220Z,95.75
2023-04-13T07:56:56.721Z,93.00
2023-04-13T08:02:02.025Z,91.51
2023-04-13T08:07:07.322Z,88.02
2023-04-13T08:12:09.535Z,87.47
2023-04-13T08:17:15.353Z,86.00
2023-04-13T08:22:17.493Z,85.55
2023-04-13T08:27:19.821Z,84.89
2023-04-13T08:32:21.614Z,85.36
2023-04-13T08:37:28.153Z,85.02
2023-04-13T08:42:30.658Z,84.05
2023-04-13T08:47:33.677Z,82.70
2023-04-13T08:52:37.317Z,82.85
2023-04-13T08:57:41.164Z,81.70
2023-04-13T09:03:00.553Z,81.79
2023-04-13T09:08:08.106Z,80.68
2023-04-13T09:13:12.813Z,80.85
2023-04-13T09:18:16.116Z,78.84
2023-04-13T09:23:24.506Z,78.07
2023-04-13T09:28:26.640Z,77.90
2023-04-13T09:33:28.669Z,78.13
2023-04-13T09:38:31.323Z,74.97
2023-04-13T09:43:40.314Z,74.90
2023-04-13T09:48:42.100Z,72.85
2023-04-13T09:53:47.491Z,73.28
2023-04-13T09:58:50.463Z,71.02
2023-04-13T10:03:52.769Z,71.47
2023-04-13T10:08:54.555Z,72.64
2023-04-13T10:14:00.091Z,73.27
2023-04-13T10:19:29.527Z,70.13
2023-04-13T10:24:31.794Z,68.29
2023-04-13T10:29:35.411Z,67.41
2023-04-13T10:34:39.558Z,67.22
2023-04-13T10:39:41.219Z,66.31
2023-04-13T10:44:51.514Z,66.94
2023-04-13T10:49:53.257Z,65.56
2023-04-13T10:54:55.446Z,66.61
2023-04-13T10:59:59.329Z,64.89
2023-04-13T11:05:02.257Z,64.17
2023-04-13T11:10:05.974Z,64.17
2023-04-13T11:15:08.635Z,65.69
2023-04-13T11:20:11.383Z,66.50
2023-04-13T11:25:13.263Z,63.53
2023-04-13T11:30:15.562Z,62.23
2023-04-13T11:35:18.659Z,61.18
2023-04-13T11:40:27.414Z,61.54
2023-04-13T11:45:30.515Z,59.67
2023-04-13T11:50:32.779Z,57.92
2023-04-13T11:55:52.186Z,57.43
2023-04-13T12:00:58.330Z,57.86
2023-04-13T12:06:05.864Z,59.42
2023-04-13T12:11:38.979Z,62.12
2023-04-13T12:21:39.990Z,62.66
2023-04-13T12:27:16.978Z,61.34
2023-04-13T12:32:15.793Z,60.87
2023-04-13T12:37:17.625Z,62.59
2023-04-13T12:42:19.246Z,65.93
2023-04-13T12:47:21.070Z,66.15
2023-04-13T12:52:22.862Z,64.29
2023-04-13T12:57:28.542Z,65.21
2023-04-13T13:02:31.136Z,64.14
2023-04-13T13:07:32.989Z,64.90
2023-04-13T13:12:34.961Z,64.96
2023-04-13T13:17:40.546Z,65.11
2023-04-13T13:22:42.405Z,64.72
2023-04-13T13:32:48.758Z,65.42
2023-04-13T13:37:50.820Z,65.06
2023-04-13T13:42:52.942Z,62.17
2023-04-13T13:47:55.085Z,62.35
2023-04-13T13:53:20.700Z,61.99
2023-04-13T13:58:22.652Z,61.77
2023-04-13T14:03:24.604Z,59.77
2023-04-13T14:08:26.274Z,59.48
2023-04-13T14:13:27.933Z,59.32
2023-04-13T14:18:29.624Z,58.56
2023-04-13T14:23:32.091Z,57.49
2023-04-13T14:28:34.053Z,56.74
2023-04-13T14:33:37.668Z,57.60
2023-04-13T14:38:39.278Z,55.65
2023-04-13T14:43:40.958Z,56.06
2023-04-13T14:48:42.570Z,56.85
2023-04-13T14:53:44.484Z,57.74
2023-04-13T14:58:46.448Z,57.82
2023-04-13T15:03:48.994Z,58.34
2023-04-13T15:08:51.044Z,58.72
2023-04-13T15:13:52.630Z,58.35
2023-04-13T15:18:54.263Z,59.75
2023-04-13T15:23:55.854Z,60.08
2023-04-13T15:28:57.901Z,59.30
2023-04-13T15:33:59.694Z,59.07
2023-04-13T15:39:02.014Z,58.94
2023-04-13T15:44:05.710Z,59.51
2023-04-13T15:49:07.300Z,58.35
2023-04-13T15:54:08.981Z,57.94
2023-04-13T15:59:10.846Z,58.78
2023-04-13T16:04:12.686Z,59.58
2023-04-13T16:09:14.507Z,61.11
2023-04-13T16:14:17.402Z,61.05
2023-04-13T16:19:19.685Z,60.70
2023-04-13T16:24:21.414Z,58.79
2023-04-13T16:29:24.808Z,57.15
2023-04-13T16:34:27.976Z,58.39
2023-04-13T16:39:29.572Z,57.33
2023-04-13T16:44:31.232Z,57.27
2023-04-13T16:49:34.674Z,57.12
2023-04-13T16:54:37.231Z,58.21
2023-04-13T16:59:39.096Z,59.27
2023-04-13T17:04:40.876Z,60.15
2023-04-13T17:09:42.774Z,60.26
2023-04-13T17:14:45.516Z,60.03
2023-04-13T17:19:47.187Z,60.91
2023-04-13T17:24:49.203Z,62.70
2023-04-13T17:29:50.969Z,63.84
2023-04-13T17:34:52.852Z,63.52
2023-04-13T17:39:54.523Z,62.33
2023-04-13T17:44:56.658Z,60.84
2023-04-13T17:49:59.663Z,62.21
2023-04-13T17:55:01.389Z,63.87
2023-04-13T18:00:06.382Z,65.55
2023-04-13T18:05:15.172Z,66.36
2023-04-13T18:10:17.247Z,66.95
2023-04-13T18:15:18.930Z,66.79
2023-04-13T18:20:20.900Z,67.95
2023-04-13T18:25:22.553Z,67.48
2023-04-13T18:30:24.231Z,67.59
2023-04-13T18:35:25.950Z,68.66
2023-04-13T18:40:27.620Z,69.78
2023-04-13T18:45:29.297Z,70.64
2023-04-13T18:50:31.028Z,70.66
2023-04-13T18:55:33.205Z,71.42
2023-04-13T19:00:39.377Z,71.69
2023-04-13T19:05:41.028Z,72.36
2023-04-13T19:10:42.902Z,73.85
2023-04-13T19:15:44.559Z,73.96
2023-04-13T19:20:46.259Z,74.89
2023-04-13T19:25:47.940Z,75.73
2023-04-13T19:30:49.681Z,74.97
2023-04-13T19:35:52.485Z,74.53
2023-04-13T19:40:54.535Z,73.96
2023-04-13T19:45:56.272Z,73.06
2023-04-13T19:50:57.920Z,71.79
2023-04-13T19:55:59.614Z,71.88
2023-04-13T20:01:02.103Z,71.29
2023-04-13T20:06:06.576Z,70.49
2023-04-13T20:11:08.204Z,70.29
2023-04-13T20:16:10.754Z,69.69
2023-04-13T20:21:12.656Z,68.51
2023-04-13T20:26:14.393Z,68.30
2023-04-13T20:31:16.560Z,67.13
2023-04-13T20:36:21.191Z,66.65
2023-04-13T20:41:24.523Z,66.00
2023-04-13T20:46:33.844Z,65.75
2023-04-13T20:51:39.713Z,65.85
2023-04-13T20:56:42.271Z,64.81
2023-04-13T21:01:44.194Z,64.97
2023-04-13T21:06:46.769Z,65.22
2023-04-13T21:11:49.499Z,65.41
2023-04-13T21:16:52.496Z,66.20
2023-04-13T21:21:55.714Z,67.29
2023-04-13T21:26:58.714Z,67.87
2023-04-13T21:32:01.536Z,68.62
2023-04-13T21:37:03.394Z,68.93
2023-04-13T21:42:09.034Z,69.40
2023-04-13T21:47:10.646Z,69.15
2023-04-13T21:52:12.274Z,70.11
2023-04-13T21:57:13.885Z,70.32
2023-04-13T22:02:16.665Z,70.96
2023-04-13T22:07:20.432Z,71.89
2023-04-13T22:12:29.820Z,73.30
2023-04-13T22:17:32.087Z,74.23
2023-04-13T22:22:33.798Z,75.11
2023-04-13T22:27:38.932Z,75.35
2023-04-13T22:32:41.991Z,75.87
2023-04-13T22:37:43.707Z,76.40
2023-04-13T22:42:45.429Z,76.57
2023-04-13T22:47:47.046Z,77.36
2023-04-13T22:52:48.755Z,78.02
2023-04-13T22:57:50.666Z,78.00
2023-04-13T23:02:56.044Z,77.93
2023-04-13T23:07:57.907Z,78.10
2023-04-13T23:12:59.521Z,78.96
2023-04-13T23:18:02.737Z,78.92
2023-04-13T23:23:05.515Z,79.50
2023-04-13T23:28:07.408Z,79.80
2023-04-13T23:33:09.353Z,79.94
2023-04-13T23:38:11.191Z,80.12
2023-04-13T23:43:12.775Z,79.99
2023-04-13T23:48:14.424Z,80.38
2023-04-13T23:53:16.691Z,80.88
2023-04-13T23:58:18.351Z,80.73
